sensor_id;sensor_type;location;lat;lon;timestamp;pressure;altitude;pressure_sealevel;temperature;humidity
64889;BME280;51386;53.082;8.816;2022-12-07T00:01:06;101262.06;;;10.43;60.80
64889;BME280;51386;53.082;8.816;2022-12-07T00:03:34;101265.81;;;10.41;60.76
64889;BME280;51386;53.082;8.816;2022-12-07T00:06:03;101260.88;;;10.38;60.39
64889;BME280;51386;53.082;8.816;2022-12-07T00:08:31;101256.75;;;10.35;61.05
64889;BME280;51386;53.082;8.816;2022-12-07T00:11:02;101257.06;;;10.32;60.74
64889;BME280;51386;53.082;8.816;2022-12-07T00:13:30;101259.03;;;10.30;60.94
64889;BME280;51386;53.082;8.816;2022-12-07T00:16:01;101264.63;;;10.27;60.41
64889;BME280;51386;53.082;8.816;2022-12-07T00:18:28;101256.88;;;10.26;60.76
64889;BME280;51386;53.082;8.816;2022-12-07T00:20:59;101258.03;;;10.23;60.79
64889;BME280;51386;53.082;8.816;2022-12-07T00:23:27;101249.47;;;10.21;60.24
64889;BME280;51386;53.082;8.816;2022-12-07T00:25:54;101251.44;;;10.19;60.28
64889;BME280;51386;53.082;8.816;2022-12-07T00:28:22;101248.16;;;10.17;60.39
64889;BME280;51386;53.082;8.816;2022-12-07T00:30:49;101251.09;;;10.14;60.37
64889;BME280;51386;53.082;8.816;2022-12-07T00:33:16;101260.97;;;10.12;60.64
64889;BME280;51386;53.082;8.816;2022-12-07T00:35:43;101255.16;;;10.08;60.27
64889;BME280;51386;53.082;8.816;2022-12-07T00:38:10;101254.31;;;10.08;60.52
64889;BME280;51386;53.082;8.816;2022-12-07T00:40:37;101251.03;;;10.06;60.85
64889;BME280;51386;53.082;8.816;2022-12-07T00:43:04;101257.94;;;10.07;60.95
64889;BME280;51386;53.082;8.816;2022-12-07T00:45:32;101252.50;;;10.08;60.89
64889;BME280;51386;53.082;8.816;2022-12-07T00:47:59;101247.13;;;10.10;60.11
64889;BME280;51386;53.082;8.816;2022-12-07T00:50:27;101251.28;;;10.12;60.51
64889;BME280;51386;53.082;8.816;2022-12-07T00:52:54;101253.72;;;10.14;60.30
64889;BME280;51386;53.082;8.816;2022-12-07T00:55:21;101244.03;;;10.14;60.61
64889;BME280;51386;53.082;8.816;2022-12-07T00:57:48;101244.03;;;10.14;60.32
64889;BME280;51386;53.082;8.816;2022-12-07T01:00:16;101237.94;;;10.14;59.92
64889;BME280;51386;53.082;8.816;2022-12-07T01:02:44;101241.84;;;10.10;60.33
64889;BME280;51386;53.082;8.816;2022-12-07T01:05:11;101248.25;;;10.07;59.91
64889;BME280;51386;53.082;8.816;2022-12-07T01:07:38;101242.16;;;10.07;60.24
64889;BME280;51386;53.082;8.816;2022-12-07T01:10:06;101240.50;;;10.06;60.64
64889;BME280;51386;53.082;8.816;2022-12-07T01:12:34;101247.72;;;10.04;60.04
64889;BME280;51386;53.082;8.816;2022-12-07T01:15:01;101239.84;;;10.04;59.79
64889;BME280;51386;53.082;8.816;2022-12-07T01:17:28;101241.81;;;10.02;60.08
64889;BME280;51386;53.082;8.816;2022-12-07T01:19:57;101249.72;;;10.02;60.09
64889;BME280;51386;53.082;8.816;2022-12-07T01:22:24;101246.09;;;10.03;60.27
64889;BME280;51386;53.082;8.816;2022-12-07T01:24:51;101251.03;;;10.06;60.18
64889;BME280;51386;53.082;8.816;2022-12-07T01:27:18;101251.53;;;10.09;60.17
64889;BME280;51386;53.082;8.816;2022-12-07T01:29:45;101259.28;;;10.11;59.80
64889;BME280;51386;53.082;8.816;2022-12-07T01:32:12;101243.50;;;10.11;60.03
64889;BME280;51386;53.082;8.816;2022-12-07T01:34:39;101247.81;;;10.12;60.01
64889;BME280;51386;53.082;8.816;2022-12-07T01:37:08;101241.84;;;10.10;59.28
64889;BME280;51386;53.082;8.816;2022-12-07T01:39:35;101239.22;;;10.10;59.08
64889;BME280;51386;53.082;8.816;2022-12-07T01:42:02;101238.22;;;10.11;59.32
64889;BME280;51386;53.082;8.816;2022-12-07T01:44:30;101234.66;;;10.12;59.50
64889;BME280;51386;53.082;8.816;2022-12-07T01:47:00;101228.56;;;10.11;58.99
64889;BME280;51386;53.082;8.816;2022-12-07T01:49:33;101232.97;;;10.11;58.93
64889;BME280;51386;53.082;8.816;2022-12-07T01:52:13;101230.50;;;10.09;59.27
64889;BME280;51386;53.082;8.816;2022-12-07T01:54:42;101236.59;;;10.10;59.36
64889;BME280;51386;53.082;8.816;2022-12-07T01:57:10;101234.94;;;10.09;59.07
64889;BME280;51386;53.082;8.816;2022-12-07T01:59:39;101232.31;;;10.09;58.42
64889;BME280;51386;53.082;8.816;2022-12-07T02:02:17;101230.00;;;10.06;58.52
64889;BME280;51386;53.082;8.816;2022-12-07T02:04:46;101230.00;;;10.06;58.88
64889;BME280;51386;53.082;8.816;2022-12-07T02:07:15;101226.69;;;10.04;58.73
64889;BME280;51386;53.082;8.816;2022-12-07T02:09:42;101225.06;;;10.03;58.92
64889;BME280;51386;53.082;8.816;2022-12-07T02:12:09;101220.13;;;10.00;59.09
64889;BME280;51386;53.082;8.816;2022-12-07T02:14:36;101214.88;;;10.00;58.32
64889;BME280;51386;53.082;8.816;2022-12-07T02:17:12;101218.81;;;9.96;58.37
64889;BME280;51386;53.082;8.816;2022-12-07T02:20:17;101220.25;;;9.90;58.25
64889;BME280;51386;53.082;8.816;2022-12-07T02:23:18;101218.09;;;9.86;58.93
64889;BME280;51386;53.082;8.816;2022-12-07T02:26:19;101213.16;;;9.83;58.86
64889;BME280;51386;53.082;8.816;2022-12-07T02:29:12;101208.53;;;9.77;58.43
64889;BME280;51386;53.082;8.816;2022-12-07T02:31:48;101206.88;;;9.76;59.04
64889;BME280;51386;53.082;8.816;2022-12-07T02:34:28;101201.91;;;9.73;58.64
64889;BME280;51386;53.082;8.816;2022-12-07T02:37:02;101205.53;;;9.72;59.04
64889;BME280;51386;53.082;8.816;2022-12-07T02:39:44;101198.78;;;9.69;58.82
64889;BME280;51386;53.082;8.816;2022-12-07T02:42:19;101201.44;;;9.69;58.52
64889;BME280;51386;53.082;8.816;2022-12-07T02:44:51;101202.25;;;9.70;58.47
64889;BME280;51386;53.082;8.816;2022-12-07T02:47:21;101204.19;;;9.68;59.02
64889;BME280;51386;53.082;8.816;2022-12-07T02:49:52;101199.75;;;9.68;58.44
64889;BME280;51386;53.082;8.816;2022-12-07T02:52:19;101201.56;;;9.68;58.48
64889;BME280;51386;53.082;8.816;2022-12-07T02:54:46;101207.50;;;9.70;58.50
64889;BME280;51386;53.082;8.816;2022-12-07T02:57:32;101208.31;;;9.70;58.64
64889;BME280;51386;53.082;8.816;2022-12-07T03:00:08;101214.09;;;9.74;59.06
64889;BME280;51386;53.082;8.816;2022-12-07T03:02:48;101211.16;;;9.77;58.76
64889;BME280;51386;53.082;8.816;2022-12-07T03:05:52;101213.78;;;9.77;58.38
64889;BME280;51386;53.082;8.816;2022-12-07T03:08:31;101214.28;;;9.80;58.80
64889;BME280;51386;53.082;8.816;2022-12-07T03:11:06;101213.66;;;9.86;58.34
64889;BME280;51386;53.082;8.816;2022-12-07T03:13:44;101210.88;;;9.88;58.40
64889;BME280;51386;53.082;8.816;2022-12-07T03:16:17;101210.69;;;9.89;58.88
64889;BME280;51386;53.082;8.816;2022-12-07T03:18:52;101201.00;;;9.90;58.77
64889;BME280;51386;53.082;8.816;2022-12-07T03:21:23;101206.94;;;9.92;58.43
64889;BME280;51386;53.082;8.816;2022-12-07T03:23:56;101201.66;;;9.92;58.74
64889;BME280;51386;53.082;8.816;2022-12-07T03:26:30;101204.16;;;9.93;58.49
64889;BME280;51386;53.082;8.816;2022-12-07T03:29:05;101195.13;;;9.96;58.34
64889;BME280;51386;53.082;8.816;2022-12-07T03:31:41;101198.44;;;9.98;58.27
64889;BME280;51386;53.082;8.816;2022-12-07T03:34:15;101193.81;;;10.00;58.33
64889;BME280;51386;53.082;8.816;2022-12-07T03:36:48;101192.81;;;10.01;58.74
64889;BME280;51386;53.082;8.816;2022-12-07T03:39:22;101198.78;;;10.03;58.27
64889;BME280;51386;53.082;8.816;2022-12-07T03:41:51;101193.50;;;10.03;57.94
64889;BME280;51386;53.082;8.816;2022-12-07T03:44:20;101196.81;;;10.05;58.52
64889;BME280;51386;53.082;8.816;2022-12-07T03:46:59;101200.09;;;10.07;58.01
64889;BME280;51386;53.082;8.816;2022-12-07T03:49:37;101203.38;;;10.09;57.77
64889;BME280;51386;53.082;8.816;2022-12-07T03:52:17;101210.31;;;10.10;57.81
64889;BME280;51386;53.082;8.816;2022-12-07T03:54:53;101216.91;;;10.14;58.11
64889;BME280;51386;53.082;8.816;2022-12-07T03:57:22;101219.38;;;10.15;58.16
64889;BME280;51386;53.082;8.816;2022-12-07T03:59:51;101217.56;;;10.16;58.15
64889;BME280;51386;53.082;8.816;2022-12-07T04:02:24;101214.94;;;10.16;58.49
64889;BME280;51386;53.082;8.816;2022-12-07T04:04:52;101207.03;;;10.16;58.37
64889;BME280;51386;53.082;8.816;2022-12-07T04:07:19;101188.94;;;10.13;58.51
64889;BME280;51386;53.082;8.816;2022-12-07T04:09:46;101181.38;;;10.10;58.15
64889;BME280;51386;53.082;8.816;2022-12-07T04:12:13;101186.41;;;10.03;58.15
64889;BME280;51386;53.082;8.816;2022-12-07T04:14:40;101181.66;;;9.99;58.75
64889;BME280;51386;53.082;8.816;2022-12-07T04:17:09;101185.28;;;9.98;58.46
64889;BME280;51386;53.082;8.816;2022-12-07T04:19:37;101182.66;;;9.98;58.80
64889;BME280;51386;53.082;8.816;2022-12-07T04:22:05;101187.25;;;9.96;58.52
64889;BME280;51386;53.082;8.816;2022-12-07T04:24:33;101189.19;;;9.94;58.50
64889;BME280;51386;53.082;8.816;2022-12-07T04:27:01;101195.44;;;9.93;58.07
64889;BME280;51386;53.082;8.816;2022-12-07T04:29:28;101204.31;;;9.92;58.26
64889;BME280;51386;53.082;8.816;2022-12-07T04:31:55;101201.66;;;9.92;58.37
64889;BME280;51386;53.082;8.816;2022-12-07T04:34:22;101199.03;;;9.92;59.00
64889;BME280;51386;53.082;8.816;2022-12-07T04:36:51;101196.41;;;9.92;58.71
64889;BME280;51386;53.082;8.816;2022-12-07T04:39:22;101202.50;;;9.92;58.71
64889;BME280;51386;53.082;8.816;2022-12-07T04:41:49;101201.66;;;9.92;59.02
64889;BME280;51386;53.082;8.816;2022-12-07T04:44:18;101200.03;;;9.91;59.00
64889;BME280;51386;53.082;8.816;2022-12-07T04:46:48;101191.16;;;9.92;58.92
64889;BME280;51386;53.082;8.816;2022-12-07T04:49:15;101188.38;;;9.93;58.46
64889;BME280;51386;53.082;8.816;2022-12-07T04:51:43;101186.72;;;9.92;58.75
64889;BME280;51386;53.082;8.816;2022-12-07T04:54:12;101190.19;;;9.93;58.47
64889;BME280;51386;53.082;8.816;2022-12-07T04:56:40;101187.56;;;9.93;58.89
64889;BME280;51386;53.082;8.816;2022-12-07T04:59:07;101184.94;;;9.93;58.58
64889;BME280;51386;53.082;8.816;2022-12-07T05:01:34;101184.75;;;9.94;59.07
64889;BME280;51386;53.082;8.816;2022-12-07T05:04:01;101190.84;;;9.95;58.64
64889;BME280;51386;53.082;8.816;2022-12-07T05:06:28;101185.59;;;9.95;58.76
64889;BME280;51386;53.082;8.816;2022-12-07T05:08:55;101182.97;;;9.95;58.76
64889;BME280;51386;53.082;8.816;2022-12-07T05:11:24;101182.13;;;9.94;58.43
64889;BME280;51386;53.082;8.816;2022-12-07T05:14:10;101179.00;;;9.91;58.50
64889;BME280;51386;53.082;8.816;2022-12-07T05:16:39;101180.97;;;9.89;58.49
64889;BME280;51386;53.082;8.816;2022-12-07T05:19:07;101188.19;;;9.87;58.56
64889;BME280;51386;53.082;8.816;2022-12-07T05:21:35;101190.16;;;9.85;58.91
64889;BME280;51386;53.082;8.816;2022-12-07T05:24:03;101190.44;;;9.82;58.76
64889;BME280;51386;53.082;8.816;2022-12-07T05:26:32;101187.50;;;9.77;58.73
64889;BME280;51386;53.082;8.816;2022-12-07T05:29:00;101187.16;;;9.72;58.77
64889;BME280;51386;53.082;8.816;2022-12-07T05:31:27;101186.13;;;9.65;58.84
64889;BME280;51386;53.082;8.816;2022-12-07T05:33:55;101195.97;;;9.63;58.96
64889;BME280;51386;53.082;8.816;2022-12-07T05:36:23;101185.78;;;9.60;58.73
64889;BME280;51386;53.082;8.816;2022-12-07T05:38:50;101186.59;;;9.60;59.11
64889;BME280;51386;53.082;8.816;2022-12-07T05:41:18;101184.94;;;9.59;58.83
64889;BME280;51386;53.082;8.816;2022-12-07T05:44:05;101180.81;;;9.57;58.58
64889;BME280;51386;53.082;8.816;2022-12-07T05:46:33;101180.16;;;9.54;59.18
64889;BME280;51386;53.082;8.816;2022-12-07T05:49:01;101170.63;;;9.53;58.56
64889;BME280;51386;53.082;8.816;2022-12-07T05:51:28;101169.81;;;9.53;58.63
64889;BME280;51386;53.082;8.816;2022-12-07T05:53:55;101175.88;;;9.53;58.99
64889;BME280;51386;53.082;8.816;2022-12-07T05:56:22;101179.50;;;9.52;58.59
64889;BME280;51386;53.082;8.816;2022-12-07T05:58:50;101170.97;;;9.50;59.03
64889;BME280;51386;53.082;8.816;2022-12-07T06:01:36;101175.53;;;9.48;58.72
64889;BME280;51386;53.082;8.816;2022-12-07T06:04:04;101180.09;;;9.46;59.15
64889;BME280;51386;53.082;8.816;2022-12-07T06:06:30;101176.53;;;9.47;58.75
64889;BME280;51386;53.082;8.816;2022-12-07T06:08:58;101174.84;;;9.46;58.88
64889;BME280;51386;53.082;8.816;2022-12-07T06:11:25;101181.47;;;9.50;58.88
64889;BME280;51386;53.082;8.816;2022-12-07T06:14:10;101178.84;;;9.50;59.25
64889;BME280;51386;53.082;8.816;2022-12-07T06:16:39;101186.09;;;9.57;58.95
64889;BME280;51386;53.082;8.816;2022-12-07T06:19:06;101203.16;;;9.61;59.12
64889;BME280;51386;53.082;8.816;2022-12-07T06:21:34;101200.91;;;9.66;59.50
64889;BME280;51386;53.082;8.816;2022-12-07T06:24:01;101207.19;;;9.73;59.36
64889;BME280;51386;53.082;8.816;2022-12-07T06:26:28;101213.63;;;9.78;58.91
64889;BME280;51386;53.082;8.816;2022-12-07T06:28:55;101211.34;;;9.83;59.15
64889;BME280;51386;53.082;8.816;2022-12-07T06:31:22;101204.63;;;9.89;59.20
64889;BME280;51386;53.082;8.816;2022-12-07T06:33:51;101204.47;;;9.98;59.11
64889;BME280;51386;53.082;8.816;2022-12-07T06:36:18;101213.06;;;10.08;59.23
64889;BME280;51386;53.082;8.816;2022-12-07T06:38:53;101214.09;;;10.15;58.85
64889;BME280;51386;53.082;8.816;2022-12-07T06:41:21;101212.97;;;10.18;58.30
64889;BME280;51386;53.082;8.816;2022-12-07T06:43:49;101213.63;;;10.20;58.04
64889;BME280;51386;53.082;8.816;2022-12-07T06:46:23;101214.63;;;10.19;57.69
64889;BME280;51386;53.082;8.816;2022-12-07T06:48:51;101208.03;;;10.15;57.78
64889;BME280;51386;53.082;8.816;2022-12-07T06:51:18;101204.22;;;10.09;57.48
64889;BME280;51386;53.082;8.816;2022-12-07T06:53:45;101201.41;;;10.03;57.95
64889;BME280;51386;53.082;8.816;2022-12-07T06:56:12;101201.84;;;9.98;57.80
64889;BME280;51386;53.082;8.816;2022-12-07T06:58:40;101202.19;;;9.95;57.49
64889;BME280;51386;53.082;8.816;2022-12-07T07:01:10;101203.63;;;9.90;57.70
64889;BME280;51386;53.082;8.816;2022-12-07T07:03:37;101188.19;;;9.87;58.16
64889;BME280;51386;53.082;8.816;2022-12-07T07:06:07;101200.66;;;9.85;57.70
64889;BME280;51386;53.082;8.816;2022-12-07T07:08:35;101199.16;;;9.82;58.34
64889;BME280;51386;53.082;8.816;2022-12-07T07:11:03;101203.94;;;9.79;57.83
64889;BME280;51386;53.082;8.816;2022-12-07T07:13:30;101214.59;;;9.77;58.41
64889;BME280;51386;53.082;8.816;2022-12-07T07:15:58;101208.53;;;9.77;57.92
64889;BME280;51386;53.082;8.816;2022-12-07T07:18:25;101206.69;;;9.77;58.61
64889;BME280;51386;53.082;8.816;2022-12-07T07:20:53;101207.53;;;9.78;58.25
64889;BME280;51386;53.082;8.816;2022-12-07T07:23:22;101208.19;;;9.80;58.67
64889;BME280;51386;53.082;8.816;2022-12-07T07:25:49;101206.56;;;9.79;58.37
64889;BME280;51386;53.082;8.816;2022-12-07T07:28:16;101211.81;;;9.79;58.77
64889;BME280;51386;53.082;8.816;2022-12-07T07:30:44;101211.16;;;9.77;58.49
64889;BME280;51386;53.082;8.816;2022-12-07T07:33:11;101208.84;;;9.74;58.54
64889;BME280;51386;53.082;8.816;2022-12-07T07:35:39;101206.50;;;9.71;58.51
64889;BME280;51386;53.082;8.816;2022-12-07T07:38:06;101206.81;;;9.68;58.68
64889;BME280;51386;53.082;8.816;2022-12-07T07:40:35;101203.53;;;9.66;58.80
64889;BME280;51386;53.082;8.816;2022-12-07T07:43:02;101195.97;;;9.63;58.65
64889;BME280;51386;53.082;8.816;2022-12-07T07:45:30;101199.75;;;9.60;58.78
64889;BME280;51386;53.082;8.816;2022-12-07T07:47:57;101202.50;;;9.59;59.07
64889;BME280;51386;53.082;8.816;2022-12-07T07:50:24;101200.19;;;9.55;59.21
64889;BME280;51386;53.082;8.816;2022-12-07T07:52:51;101197.41;;;9.57;58.82
64889;BME280;51386;53.082;8.816;2022-12-07T07:55:18;101195.28;;;9.61;59.02
64889;BME280;51386;53.082;8.816;2022-12-07T07:57:47;101202.88;;;9.64;59.15
64889;BME280;51386;53.082;8.816;2022-12-07T08:00:22;101209.31;;;9.69;58.53
64889;BME280;51386;53.082;8.816;2022-12-07T08:02:49;101213.78;;;9.77;59.49
64889;BME280;51386;53.082;8.816;2022-12-07T08:05:17;101217.44;;;9.84;58.54
64889;BME280;51386;53.082;8.816;2022-12-07T08:07:44;101218.94;;;9.86;58.72
64889;BME280;51386;53.082;8.816;2022-12-07T08:10:13;101214.16;;;9.90;58.20
64889;BME280;51386;53.082;8.816;2022-12-07T08:12:42;101218.59;;;9.89;58.58
64889;BME280;51386;53.082;8.816;2022-12-07T08:15:31;101223.03;;;9.89;58.08
64889;BME280;51386;53.082;8.816;2022-12-07T08:17:58;101222.22;;;9.88;57.93
64889;BME280;51386;53.082;8.816;2022-12-07T08:20:26;101219.91;;;9.85;58.42
64889;BME280;51386;53.082;8.816;2022-12-07T08:22:53;101214.47;;;9.87;58.20
64889;BME280;51386;53.082;8.816;2022-12-07T08:25:20;101220.56;;;9.87;58.49
64889;BME280;51386;53.082;8.816;2022-12-07T08:27:50;101222.22;;;9.88;58.22
64889;BME280;51386;53.082;8.816;2022-12-07T08:30:18;101221.38;;;9.88;57.73
64889;BME280;51386;53.082;8.816;2022-12-07T08:32:47;101222.34;;;9.87;58.17
64889;BME280;51386;53.082;8.816;2022-12-07T08:35:15;101226.94;;;9.85;57.92
64889;BME280;51386;53.082;8.816;2022-12-07T08:37:42;101230.56;;;9.84;57.71
64889;BME280;51386;53.082;8.816;2022-12-07T08:40:12;101238.28;;;9.85;57.55
64889;BME280;51386;53.082;8.816;2022-12-07T08:42:42;101221.69;;;9.85;57.75
64889;BME280;51386;53.082;8.816;2022-12-07T08:45:12;101221.38;;;9.88;58.11
64889;BME280;51386;53.082;8.816;2022-12-07T08:47:46;101221.38;;;9.88;57.96
64889;BME280;51386;53.082;8.816;2022-12-07T08:50:16;101225.19;;;9.93;57.68
64889;BME280;51386;53.082;8.816;2022-12-07T08:52:44;101229.31;;;9.96;57.80
64889;BME280;51386;53.082;8.816;2022-12-07T08:55:11;101230.63;;;10.00;58.11
64889;BME280;51386;53.082;8.816;2022-12-07T08:57:39;101235.59;;;10.03;57.69
64889;BME280;51386;53.082;8.816;2022-12-07T09:00:08;101239.53;;;10.07;57.71
64889;BME280;51386;53.082;8.816;2022-12-07T09:02:36;101242.56;;;10.12;57.67
64889;BME280;51386;53.082;8.816;2022-12-07T09:05:05;101246.50;;;10.16;57.57
64889;BME280;51386;53.082;8.816;2022-12-07T09:07:42;101237.31;;;10.20;57.70
64889;BME280;51386;53.082;8.816;2022-12-07T09:10:11;101240.63;;;10.22;57.53
64889;BME280;51386;53.082;8.816;2022-12-07T09:12:38;101238.66;;;10.24;57.39
64889;BME280;51386;53.082;8.816;2022-12-07T09:15:06;101235.38;;;10.30;57.30
64889;BME280;51386;53.082;8.816;2022-12-07T09:17:34;101237.03;;;10.31;57.13
64889;BME280;51386;53.082;8.816;2022-12-07T09:20:06;101233.38;;;10.32;57.34
64889;BME280;51386;53.082;8.816;2022-12-07T09:22:33;101226.16;;;10.34;57.25
64889;BME280;51386;53.082;8.816;2022-12-07T09:25:03;101230.63;;;10.42;56.59
64889;BME280;51386;53.082;8.816;2022-12-07T09:27:30;101229.16;;;10.47;57.19
64889;BME280;51386;53.082;8.816;2022-12-07T09:29:57;101228.00;;;10.50;56.62
64889;BME280;51386;53.082;8.816;2022-12-07T09:32:24;101232.97;;;10.53;57.20
64889;BME280;51386;53.082;8.816;2022-12-07T09:34:51;101225.22;;;10.51;56.73
64889;BME280;51386;53.082;8.816;2022-12-07T09:37:20;101221.94;;;10.49;56.80
64889;BME280;51386;53.082;8.816;2022-12-07T09:39:47;101233.28;;;10.50;57.09
64889;BME280;51386;53.082;8.816;2022-12-07T09:42:32;101227.19;;;10.49;56.72
64889;BME280;51386;53.082;8.816;2022-12-07T09:45:02;101220.59;;;10.53;56.99
64889;BME280;51386;53.082;8.816;2022-12-07T09:47:33;101223.44;;;10.60;56.97
64889;BME280;51386;53.082;8.816;2022-12-07T09:50:07;101219.97;;;10.67;56.60
64889;BME280;51386;53.082;8.816;2022-12-07T09:52:41;101214.38;;;10.70;56.21
64889;BME280;51386;53.082;8.816;2022-12-07T09:55:12;101214.38;;;10.70;56.61
64889;BME280;51386;53.082;8.816;2022-12-07T09:57:40;101205.81;;;10.68;56.64
64889;BME280;51386;53.082;8.816;2022-12-07T10:00:14;101219.00;;;10.68;56.78
64889;BME280;51386;53.082;8.816;2022-12-07T10:02:44;101212.75;;;10.69;56.04
64889;BME280;51386;53.082;8.816;2022-12-07T10:05:16;101204.84;;;10.69;56.29
64889;BME280;51386;53.082;8.816;2022-12-07T10:07:51;101204.69;;;10.71;56.75
64889;BME280;51386;53.082;8.816;2022-12-07T10:10:24;101210.41;;;10.74;56.28
64889;BME280;51386;53.082;8.816;2022-12-07T10:12:58;101213.75;;;10.76;56.27
64889;BME280;51386;53.082;8.816;2022-12-07T10:15:43;101217.03;;;10.78;55.97
64889;BME280;51386;53.082;8.816;2022-12-07T10:18:29;101217.34;;;10.92;55.78
64889;BME280;51386;53.082;8.816;2022-12-07T10:21:10;101219.81;;;11.01;55.82
64889;BME280;51386;53.082;8.816;2022-12-07T10:23:41;101214.88;;;11.06;55.57
64889;BME280;51386;53.082;8.816;2022-12-07T10:26:27;101212.41;;;11.05;54.84
64889;BME280;51386;53.082;8.816;2022-12-07T10:28:59;101206.31;;;11.04;54.78
64889;BME280;51386;53.082;8.816;2022-12-07T10:31:26;101213.25;;;11.05;55.30
64889;BME280;51386;53.082;8.816;2022-12-07T10:33:56;101197.09;;;11.08;55.39
64889;BME280;51386;53.082;8.816;2022-12-07T10:36:26;101194.78;;;11.13;54.58
64889;BME280;51386;53.082;8.816;2022-12-07T10:39:01;101198.91;;;11.16;55.06
64889;BME280;51386;53.082;8.816;2022-12-07T10:41:30;101194.94;;;11.20;54.33
64889;BME280;51386;53.082;8.816;2022-12-07T10:43:58;101193.78;;;11.22;54.28
64889;BME280;51386;53.082;8.816;2022-12-07T10:46:50;101190.34;;;11.22;54.17
64889;BME280;51386;53.082;8.816;2022-12-07T10:53:03;101189.34;;;11.23;54.16
64889;BME280;51386;53.082;8.816;2022-12-07T10:56:00;101189.00;;;11.18;54.45
64889;BME280;51386;53.082;8.816;2022-12-07T10:58:53;101182.13;;;11.17;53.93
64889;BME280;51386;53.082;8.816;2022-12-07T11:01:30;101181.94;;;11.18;54.19
64889;BME280;51386;53.082;8.816;2022-12-07T11:04:29;101186.72;;;11.15;54.34
64889;BME280;51386;53.082;8.816;2022-12-07T11:07:07;101175.84;;;11.18;53.94
64889;BME280;51386;53.082;8.816;2022-12-07T11:10:02;101181.28;;;11.16;53.98
64889;BME280;51386;53.082;8.816;2022-12-07T11:12:52;101178.31;;;11.19;54.07
64889;BME280;51386;53.082;8.816;2022-12-07T11:15:26;101190.81;;;11.25;53.93
64889;BME280;51386;53.082;8.816;2022-12-07T11:18:06;101189.84;;;11.26;53.82
64889;BME280;51386;53.082;8.816;2022-12-07T11:20:43;101178.78;;;11.23;53.56
64889;BME280;51386;53.082;8.816;2022-12-07T11:23:32;101184.25;;;11.21;53.94
64889;BME280;51386;53.082;8.816;2022-12-07T11:26:18;101180.13;;;11.19;53.89
64889;BME280;51386;53.082;8.816;2022-12-07T11:29:19;101165.97;;;11.12;53.67
64889;BME280;51386;53.082;8.816;2022-12-07T11:32:02;101152.47;;;11.07;54.23
64889;BME280;51386;53.082;8.816;2022-12-07T11:34:41;101142.59;;;11.01;53.75
64889;BME280;51386;53.082;8.816;2022-12-07T11:37:18;101158.59;;;10.99;54.26
64889;BME280;51386;53.082;8.816;2022-12-07T11:39:51;101148.03;;;10.99;54.21
64889;BME280;51386;53.082;8.816;2022-12-07T11:42:23;101151.97;;;11.03;54.81
64889;BME280;51386;53.082;8.816;2022-12-07T11:44:59;101152.63;;;11.13;54.56
64889;BME280;51386;53.082;8.816;2022-12-07T11:47:35;101145.56;;;11.22;54.80
64889;BME280;51386;53.082;8.816;2022-12-07T11:50:23;101145.19;;;11.25;54.61
64889;BME280;51386;53.082;8.816;2022-12-07T11:52:57;101137.47;;;11.31;54.06
64889;BME280;51386;53.082;8.816;2022-12-07T11:55:32;101141.84;;;11.39;54.41
64889;BME280;51386;53.082;8.816;2022-12-07T11:58:22;101141.53;;;11.42;53.98
64889;BME280;51386;53.082;8.816;2022-12-07T12:01:11;101133.94;;;11.47;54.14
64889;BME280;51386;53.082;8.816;2022-12-07T12:03:42;101125.63;;;11.58;53.98
64889;BME280;51386;53.082;8.816;2022-12-07T12:06:19;101124.31;;;11.70;54.19
64889;BME280;51386;53.082;8.816;2022-12-07T12:08:53;101123.75;;;11.83;54.17
64889;BME280;51386;53.082;8.816;2022-12-07T12:12:16;101119.25;;;11.91;53.68
64889;BME280;51386;53.082;8.816;2022-12-07T12:15:37;101114.75;;;12.00;53.72
64889;BME280;51386;53.082;8.816;2022-12-07T12:18:29;101124.25;;;12.09;53.27
64889;BME280;51386;53.082;8.816;2022-12-07T12:21:04;101122.84;;;12.21;53.24
64889;BME280;51386;53.082;8.816;2022-12-07T12:23:41;101114.06;;;12.29;53.42
64889;BME280;51386;53.082;8.816;2022-12-07T12:26:18;101110.72;;;12.35;52.96
64889;BME280;51386;53.082;8.816;2022-12-07T12:28:54;101101.63;;;12.37;52.79
64889;BME280;51386;53.082;8.816;2022-12-07T12:31:37;101104.44;;;12.36;52.37
64889;BME280;51386;53.082;8.816;2022-12-07T12:34:33;101095.22;;;12.32;52.57
64889;BME280;51386;53.082;8.816;2022-12-07T12:37:41;101099.41;;;12.26;52.12
64889;BME280;51386;53.082;8.816;2022-12-07T12:40:43;101080.16;;;12.17;52.28
64889;BME280;51386;53.082;8.816;2022-12-07T12:43:44;101078.03;;;12.13;52.29
64889;BME280;51386;53.082;8.816;2022-12-07T12:46:48;101084.63;;;12.17;52.90
64889;BME280;51386;53.082;8.816;2022-12-07T12:50:12;101098.16;;;12.14;52.93
64889;BME280;51386;53.082;8.816;2022-12-07T12:53:13;101125.66;;;11.97;51.82
64889;BME280;51386;53.082;8.816;2022-12-07T12:56:23;101111.28;;;11.61;52.31
64889;BME280;51386;53.082;8.816;2022-12-07T12:59:23;101111.38;;;11.36;53.30
64889;BME280;51386;53.082;8.816;2022-12-07T13:01:54;101106.16;;;11.28;53.71
64889;BME280;51386;53.082;8.816;2022-12-07T13:04:56;101102.06;;;11.18;53.94
64889;BME280;51386;53.082;8.816;2022-12-07T13:08:02;101101.25;;;11.17;54.82
64889;BME280;51386;53.082;8.816;2022-12-07T13:10:39;101094.47;;;11.23;55.20
64889;BME280;51386;53.082;8.816;2022-12-07T13:13:33;101089.41;;;11.21;54.74
64889;BME280;51386;53.082;8.816;2022-12-07T13:16:44;101088.91;;;11.18;55.17
64889;BME280;51386;53.082;8.816;2022-12-07T13:19:56;101078.72;;;11.15;55.27
64889;BME280;51386;53.082;8.816;2022-12-07T13:22:58;101082.97;;;11.16;55.75
64889;BME280;51386;53.082;8.816;2022-12-07T13:25:38;101077.03;;;11.22;55.99
64889;BME280;51386;53.082;8.816;2022-12-07T13:28:16;101076.34;;;11.28;56.03
64889;BME280;51386;53.082;8.816;2022-12-07T13:31:11;101071.56;;;11.31;56.04
64889;BME280;51386;53.082;8.816;2022-12-07T13:33:43;101072.53;;;11.38;56.21